Ethel, LA (70730)

3:06 PM CST en Noviembre 24, 2014 (GMT -0600)
Richland | Change Station
CLOSE
Current Station
Estación meteorológica personal
Location: Zachary, LA
Altura: 125 ft
Estaciones meteorológicas cercanas

Alt 125 ft 30.68 °N, 91.18 °W | Updated 6 seconds ago

Despejado
Despejado
64.2 ° F
Sensación térmica 64.2 ° F
N
5.0
Viento Variable Viento desde NO
Gusts 13.0 mph

Hoy
Alta -- | Baja -- ° F
--% Posibilidad de precipitaciones
Ayer
Alta -- | Baja -- ° F
Precip. -- pul
6:38 AM 5:03 PM
Creciente, 7% visible
Presión 29.93 pul
Visibilidad 10.0 Millas
Nubes Despejado
Punto de rocío 42 ° F
Humedad 45%
Precipitaciones 0.00 pul
Espesor de la nieve No disponible.
UV 2 de una escala de 12
Polen 2.70 de una escala de 12
Calidad del aire No disponible.
Flu Activity No disponible.
METAR KBTR 242053Z 31009KT 10SM CLR 19/06 A2993 RMK AO2 SLP134 T01890061 53001

More Conditions Fewer Conditions

Presión 29.93 pul
Visibilidad 10.0 Millas
Nubes Despejado
Punto de rocío 42 ° F
Humedad 45%
Precipitaciones 0.00 pul
Espesor de la nieve No disponible.
UV 2 de una escala de 12
Polen 2.70 de una escala de 12
Calidad del aire No disponible.
Flu Activity No disponible.
METAR KBTR 242053Z 31009KT 10SM CLR 19/06 A2993 RMK AO2 SLP134 T01890061 53001

More Conditions Fewer Conditions

10-Day Weather Forecast

Almanac

Astronomía

Nov. 24, 2014 Salida Puesta
Hora real
Crepúsculo civil
Crepúsculo náutico
Crepúsculo astronómico
Luna
Horas de luz
Horas de luz
Tomorrow will be .
, % of the Moon is Illuminated

Extremos de hoy

Máximos del estado Bajos del estado

Community

WunderPhotos

Upload Photos

1,773,409 ¡fotos cargadas!

WunderBlogs® & News

Nearby

Calidad del aire

  Calidad del aire Índice AQ Contaminante
Not available.

Grosos de nieve

Estación Profundido Altura

Actividad de terremotos

Ciudad Distance Mag. Tiempo y dato
Magnitud mínima muestra es 2,5.

Temperaturas de aguas costeras

Lugar Temperatura

Estaciones meteorológicas cercanas